sensor_id;sensor_type;location;lat;lon;timestamp;temperature;humidity
55091;DHT22;40985;53.180;5.800;2023-03-21T00:00:40;7.90;99.90
55091;DHT22;40985;53.180;5.800;2023-03-21T00:03:06;8.10;99.90
55091;DHT22;40985;53.180;5.800;2023-03-21T00:05:33;7.90;99.90
55091;DHT22;40985;53.180;5.800;2023-03-21T00:07:59;8.10;99.90
55091;DHT22;40985;53.180;5.800;2023-03-21T00:10:25;7.90;99.90
55091;DHT22;40985;53.180;5.800;2023-03-21T00:13:15;8.20;99.90
55091;DHT22;40985;53.180;5.800;2023-03-21T00:15:41;7.90;99.90
55091;DHT22;40985;53.180;5.800;2023-03-21T00:18:19;7.90;99.90
55091;DHT22;40985;53.180;5.800;2023-03-21T00:21:00;8.00;99.90
55091;DHT22;40985;53.180;5.800;2023-03-21T00:23:27;8.10;99.90
55091;DHT22;40985;53.180;5.800;2023-03-21T00:25:56;7.90;99.90
55091;DHT22;40985;53.180;5.800;2023-03-21T00:28:22;8.20;99.90
55091;DHT22;40985;53.180;5.800;2023-03-21T00:30:48;7.90;99.90
55091;DHT22;40985;53.180;5.800;2023-03-21T00:33:14;7.90;99.90
55091;DHT22;40985;53.180;5.800;2023-03-21T00:35:40;8.20;99.90
55091;DHT22;40985;53.180;5.800;2023-03-21T00:38:13;8.00;99.90
55091;DHT22;40985;53.180;5.800;2023-03-21T00:40:40;8.10;99.90
55091;DHT22;40985;53.180;5.800;2023-03-21T00:43:05;7.90;99.90
55091;DHT22;40985;53.180;5.800;2023-03-21T00:45:31;7.90;99.90
55091;DHT22;40985;53.180;5.800;2023-03-21T00:47:57;8.20;99.90
55091;DHT22;40985;53.180;5.800;2023-03-21T00:50:23;8.20;99.90
55091;DHT22;40985;53.180;5.800;2023-03-21T00:52:49;8.00;99.90
55091;DHT22;40985;53.180;5.800;2023-03-21T00:55:16;8.10;99.90
55091;DHT22;40985;53.180;5.800;2023-03-21T00:57:42;8.00;99.90
55091;DHT22;40985;53.180;5.800;2023-03-21T01:00:11;8.30;99.90
55091;DHT22;40985;53.180;5.800;2023-03-21T01:02:38;8.00;99.90
55091;DHT22;40985;53.180;5.800;2023-03-21T01:05:08;8.30;99.90
55091;DHT22;40985;53.180;5.800;2023-03-21T01:07:35;7.90;99.90
55091;DHT22;40985;53.180;5.800;2023-03-21T01:10:01;8.10;99.90
55091;DHT22;40985;53.180;5.800;2023-03-21T01:12:27;8.20;99.90
55091;DHT22;40985;53.180;5.800;2023-03-21T01:14:52;8.20;99.90
55091;DHT22;40985;53.180;5.800;2023-03-21T01:17:18;7.90;99.90
55091;DHT22;40985;53.180;5.800;2023-03-21T01:19:44;8.20;99.90
55091;DHT22;40985;53.180;5.800;2023-03-21T01:22:10;7.90;99.90
55091;DHT22;40985;53.180;5.800;2023-03-21T01:24:36;8.10;99.90
55091;DHT22;40985;53.180;5.800;2023-03-21T01:27:02;8.30;99.90
55091;DHT22;40985;53.180;5.800;2023-03-21T01:29:27;8.30;99.90
55091;DHT22;40985;53.180;5.800;2023-03-21T01:31:53;8.30;99.90
55091;DHT22;40985;53.180;5.800;2023-03-21T01:34:20;8.10;99.90
55091;DHT22;40985;53.180;5.800;2023-03-21T01:36:46;8.00;99.90
55091;DHT22;40985;53.180;5.800;2023-03-21T01:39:11;8.00;99.90
55091;DHT22;40985;53.180;5.800;2023-03-21T01:41:41;8.00;99.90
55091;DHT22;40985;53.180;5.800;2023-03-21T01:44:14;8.10;99.90
55091;DHT22;40985;53.180;5.800;2023-03-21T01:49:28;8.20;99.90
55091;DHT22;40985;53.180;5.800;2023-03-21T01:52:08;8.00;99.90
55091;DHT22;40985;53.180;5.800;2023-03-21T01:54:37;8.00;99.90
55091;DHT22;40985;53.180;5.800;2023-03-21T01:57:08;7.90;99.90
55091;DHT22;40985;53.180;5.800;2023-03-21T01:59:36;8.00;99.90
55091;DHT22;40985;53.180;5.800;2023-03-21T02:02:04;8.00;99.90
55091;DHT22;40985;53.180;5.800;2023-03-21T02:04:36;8.20;99.90
55091;DHT22;40985;53.180;5.800;2023-03-21T02:07:13;8.00;99.90
55091;DHT22;40985;53.180;5.800;2023-03-21T02:09:45;8.00;99.90
55091;DHT22;40985;53.180;5.800;2023-03-21T02:12:13;8.10;99.90
55091;DHT22;40985;53.180;5.800;2023-03-21T02:14:41;7.90;99.90
55091;DHT22;40985;53.180;5.800;2023-03-21T02:17:30;7.90;99.90
55091;DHT22;40985;53.180;5.800;2023-03-21T02:28:14;8.30;99.90
55091;DHT22;40985;53.180;5.800;2023-03-21T02:39:10;8.00;99.90
55091;DHT22;40985;53.180;5.800;2023-03-21T02:41:48;8.20;99.90
55091;DHT22;40985;53.180;5.800;2023-03-21T02:47:31;8.20;99.90
55091;DHT22;40985;53.180;5.800;2023-03-21T02:52:35;8.10;99.90
55091;DHT22;40985;53.180;5.800;2023-03-21T02:55:04;8.10;99.90
55091;DHT22;40985;53.180;5.800;2023-03-21T02:57:42;8.00;99.90
55091;DHT22;40985;53.180;5.800;2023-03-21T03:00:10;8.10;99.90
55091;DHT22;40985;53.180;5.800;2023-03-21T03:02:38;8.10;99.90
55091;DHT22;40985;53.180;5.800;2023-03-21T03:05:14;8.00;99.90
55091;DHT22;40985;53.180;5.800;2023-03-21T03:08:09;7.90;99.90
55091;DHT22;40985;53.180;5.800;2023-03-21T03:13:34;8.00;99.90
55091;DHT22;40985;53.180;5.800;2023-03-21T03:18:46;8.30;99.90
55091;DHT22;40985;53.180;5.800;2023-03-21T03:24:02;8.00;99.90
55091;DHT22;40985;53.180;5.800;2023-03-21T03:27:05;8.00;99.90
55091;DHT22;40985;53.180;5.800;2023-03-21T03:29:29;8.00;99.90
55091;DHT22;40985;53.180;5.800;2023-03-21T03:32:06;7.90;99.90
55091;DHT22;40985;53.180;5.800;2023-03-21T03:34:39;8.20;99.90
55091;DHT22;40985;53.180;5.800;2023-03-21T03:37:10;8.00;99.90
55091;DHT22;40985;53.180;5.800;2023-03-21T03:42:20;8.00;99.90
55091;DHT22;40985;53.180;5.800;2023-03-21T03:44:49;8.10;99.90
55091;DHT22;40985;53.180;5.800;2023-03-21T03:47:40;8.30;99.90
55091;DHT22;40985;53.180;5.800;2023-03-21T03:53:12;8.20;99.90
55091;DHT22;40985;53.180;5.800;2023-03-21T03:55:44;8.20;99.90
55091;DHT22;40985;53.180;5.800;2023-03-21T03:58:10;8.10;99.90
55091;DHT22;40985;53.180;5.800;2023-03-21T04:00:37;8.30;99.90
55091;DHT22;40985;53.180;5.800;2023-03-21T04:03:03;8.10;99.90
55091;DHT22;40985;53.180;5.800;2023-03-21T04:05:36;8.30;99.90
55091;DHT22;40985;53.180;5.800;2023-03-21T04:08:01;8.30;99.90
55091;DHT22;40985;53.180;5.800;2023-03-21T04:10:30;8.30;99.90
55091;DHT22;40985;53.180;5.800;2023-03-21T04:12:56;8.00;99.90
55091;DHT22;40985;53.180;5.800;2023-03-21T04:15:22;8.00;99.90
55091;DHT22;40985;53.180;5.800;2023-03-21T04:17:47;8.30;99.90
55091;DHT22;40985;53.180;5.800;2023-03-21T04:20:13;8.00;99.90
55091;DHT22;40985;53.180;5.800;2023-03-21T04:22:39;8.10;99.90
55091;DHT22;40985;53.180;5.800;2023-03-21T04:25:05;8.10;99.90
55091;DHT22;40985;53.180;5.800;2023-03-21T04:27:31;8.10;99.90
55091;DHT22;40985;53.180;5.800;2023-03-21T04:29:59;8.00;99.90
55091;DHT22;40985;53.180;5.800;2023-03-21T04:32:25;8.30;99.90
55091;DHT22;40985;53.180;5.800;2023-03-21T04:34:51;8.00;99.90
55091;DHT22;40985;53.180;5.800;2023-03-21T04:37:22;8.00;99.90
55091;DHT22;40985;53.180;5.800;2023-03-21T04:39:49;8.30;99.90
55091;DHT22;40985;53.180;5.800;2023-03-21T04:42:16;8.20;99.90
55091;DHT22;40985;53.180;5.800;2023-03-21T04:44:46;8.20;99.90
55091;DHT22;40985;53.180;5.800;2023-03-21T04:47:13;8.30;99.90
55091;DHT22;40985;53.180;5.800;2023-03-21T04:49:43;8.00;99.90
55091;DHT22;40985;53.180;5.800;2023-03-21T04:52:10;8.00;99.90
55091;DHT22;40985;53.180;5.800;2023-03-21T04:54:35;8.20;99.90
55091;DHT22;40985;53.180;5.800;2023-03-21T04:57:02;8.20;99.90
55091;DHT22;40985;53.180;5.800;2023-03-21T04:59:29;8.40;99.90
55091;DHT22;40985;53.180;5.800;2023-03-21T05:01:55;8.00;99.90
55091;DHT22;40985;53.180;5.800;2023-03-21T05:04:23;8.10;99.90
55091;DHT22;40985;53.180;5.800;2023-03-21T05:06:53;8.30;99.90
55091;DHT22;40985;53.180;5.800;2023-03-21T05:09:19;8.10;99.90
55091;DHT22;40985;53.180;5.800;2023-03-21T05:11:47;8.30;99.90
55091;DHT22;40985;53.180;5.800;2023-03-21T05:14:15;8.20;99.90
55091;DHT22;40985;53.180;5.800;2023-03-21T05:16:43;8.00;99.90
55091;DHT22;40985;53.180;5.800;2023-03-21T05:19:14;8.00;99.90
55091;DHT22;40985;53.180;5.800;2023-03-21T05:21:40;8.40;99.90
55091;DHT22;40985;53.180;5.800;2023-03-21T05:24:13;8.10;99.90
55091;DHT22;40985;53.180;5.800;2023-03-21T05:26:41;8.30;99.90
55091;DHT22;40985;53.180;5.800;2023-03-21T05:29:07;8.20;99.90
55091;DHT22;40985;53.180;5.800;2023-03-21T05:31:33;8.40;99.90
55091;DHT22;40985;53.180;5.800;2023-03-21T05:33:59;8.30;99.90
55091;DHT22;40985;53.180;5.800;2023-03-21T05:36:25;8.40;99.90
55091;DHT22;40985;53.180;5.800;2023-03-21T05:38:50;8.30;99.90
55091;DHT22;40985;53.180;5.800;2023-03-21T05:41:16;8.10;99.90
55091;DHT22;40985;53.180;5.800;2023-03-21T05:43:42;8.10;99.90
55091;DHT22;40985;53.180;5.800;2023-03-21T05:46:09;8.30;99.90
55091;DHT22;40985;53.180;5.800;2023-03-21T05:48:35;8.00;99.90
55091;DHT22;40985;53.180;5.800;2023-03-21T05:51:01;8.10;99.90
55091;DHT22;40985;53.180;5.800;2023-03-21T05:53:27;8.00;99.90
55091;DHT22;40985;53.180;5.800;2023-03-21T05:55:53;8.20;99.90
55091;DHT22;40985;53.180;5.800;2023-03-21T05:58:19;8.00;99.90
55091;DHT22;40985;53.180;5.800;2023-03-21T06:00:48;8.40;99.90
55091;DHT22;40985;53.180;5.800;2023-03-21T06:03:14;8.30;99.90
55091;DHT22;40985;53.180;5.800;2023-03-21T06:05:39;8.40;99.90
55091;DHT22;40985;53.180;5.800;2023-03-21T06:08:05;8.20;99.90
55091;DHT22;40985;53.180;5.800;2023-03-21T06:10:34;8.40;99.90
55091;DHT22;40985;53.180;5.800;2023-03-21T06:13:00;8.10;99.90
55091;DHT22;40985;53.180;5.800;2023-03-21T06:15:25;8.20;99.90
55091;DHT22;40985;53.180;5.800;2023-03-21T06:17:51;8.40;99.90
55091;DHT22;40985;53.180;5.800;2023-03-21T06:20:17;8.10;99.90
55091;DHT22;40985;53.180;5.800;2023-03-21T06:22:43;8.10;99.90
55091;DHT22;40985;53.180;5.800;2023-03-21T06:25:09;8.40;99.90
55091;DHT22;40985;53.180;5.800;2023-03-21T06:27:36;8.20;99.90
55091;DHT22;40985;53.180;5.800;2023-03-21T06:30:03;8.20;99.90
55091;DHT22;40985;53.180;5.800;2023-03-21T06:32:30;8.20;99.90
55091;DHT22;40985;53.180;5.800;2023-03-21T06:34:56;8.50;99.90
55091;DHT22;40985;53.180;5.800;2023-03-21T06:37:22;8.10;99.90
55091;DHT22;40985;53.180;5.800;2023-03-21T06:39:48;8.20;99.90
55091;DHT22;40985;53.180;5.800;2023-03-21T06:42:14;8.40;99.90
55091;DHT22;40985;53.180;5.800;2023-03-21T06:44:40;8.30;99.90
55091;DHT22;40985;53.180;5.800;2023-03-21T06:47:06;8.30;99.90
55091;DHT22;40985;53.180;5.800;2023-03-21T06:49:32;8.50;99.90
55091;DHT22;40985;53.180;5.800;2023-03-21T06:51:58;8.50;99.90
55091;DHT22;40985;53.180;5.800;2023-03-21T06:54:23;8.50;99.90
55091;DHT22;40985;53.180;5.800;2023-03-21T06:56:49;8.40;99.90
55091;DHT22;40985;53.180;5.800;2023-03-21T06:59:15;8.50;99.90
55091;DHT22;40985;53.180;5.800;2023-03-21T07:01:41;8.30;99.90
55091;DHT22;40985;53.180;5.800;2023-03-21T07:04:09;8.20;99.90
55091;DHT22;40985;53.180;5.800;2023-03-21T07:06:35;8.20;99.90
55091;DHT22;40985;53.180;5.800;2023-03-21T07:09:02;8.60;99.90
55091;DHT22;40985;53.180;5.800;2023-03-21T07:11:28;8.50;99.90
55091;DHT22;40985;53.180;5.800;2023-03-21T07:13:54;8.40;99.90
55091;DHT22;40985;53.180;5.800;2023-03-21T07:16:20;8.60;99.90
55091;DHT22;40985;53.180;5.800;2023-03-21T07:18:46;8.60;99.90
55091;DHT22;40985;53.180;5.800;2023-03-21T07:21:12;8.70;99.90
55091;DHT22;40985;53.180;5.800;2023-03-21T07:23:38;8.30;99.90
55091;DHT22;40985;53.180;5.800;2023-03-21T07:26:04;8.40;99.90
55091;DHT22;40985;53.180;5.800;2023-03-21T07:28:30;8.40;99.90
55091;DHT22;40985;53.180;5.800;2023-03-21T07:31:00;8.70;99.90
55091;DHT22;40985;53.180;5.800;2023-03-21T07:33:27;8.60;99.90
55091;DHT22;40985;53.180;5.800;2023-03-21T07:35:54;8.70;99.90
55091;DHT22;40985;53.180;5.800;2023-03-21T07:38:20;8.40;99.90
55091;DHT22;40985;53.180;5.800;2023-03-21T07:40:47;8.40;99.90
55091;DHT22;40985;53.180;5.800;2023-03-21T07:43:13;8.50;99.90
55091;DHT22;40985;53.180;5.800;2023-03-21T07:45:40;8.50;99.90
55091;DHT22;40985;53.180;5.800;2023-03-21T07:48:07;8.70;99.90
55091;DHT22;40985;53.180;5.800;2023-03-21T07:50:33;8.70;99.90
55091;DHT22;40985;53.180;5.800;2023-03-21T07:52:59;8.40;99.90
55091;DHT22;40985;53.180;5.800;2023-03-21T07:55:25;8.40;99.90
55091;DHT22;40985;53.180;5.800;2023-03-21T07:57:51;8.70;99.90
55091;DHT22;40985;53.180;5.800;2023-03-21T08:00:21;8.50;99.90
55091;DHT22;40985;53.180;5.800;2023-03-21T08:02:51;8.50;99.90
55091;DHT22;40985;53.180;5.800;2023-03-21T08:05:28;8.80;99.90
55091;DHT22;40985;53.180;5.800;2023-03-21T08:07:55;8.70;99.90
55091;DHT22;40985;53.180;5.800;2023-03-21T08:10:20;8.80;99.90
55091;DHT22;40985;53.180;5.800;2023-03-21T08:12:47;8.50;99.90
55091;DHT22;40985;53.180;5.800;2023-03-21T08:15:13;8.70;99.90
55091;DHT22;40985;53.180;5.800;2023-03-21T08:17:40;8.50;99.90
55091;DHT22;40985;53.180;5.800;2023-03-21T08:20:09;8.80;99.90
55091;DHT22;40985;53.180;5.800;2023-03-21T08:22:37;8.60;99.90
55091;DHT22;40985;53.180;5.800;2023-03-21T08:25:04;8.80;99.90
55091;DHT22;40985;53.180;5.800;2023-03-21T08:27:31;8.80;99.90
55091;DHT22;40985;53.180;5.800;2023-03-21T08:29:57;8.70;99.90
55091;DHT22;40985;53.180;5.800;2023-03-21T08:32:24;8.60;99.90
55091;DHT22;40985;53.180;5.800;2023-03-21T08:35:00;8.90;99.90
55091;DHT22;40985;53.180;5.800;2023-03-21T08:37:26;8.80;99.90
55091;DHT22;40985;53.180;5.800;2023-03-21T08:39:52;8.90;99.90
55091;DHT22;40985;53.180;5.800;2023-03-21T08:42:19;8.80;99.90
55091;DHT22;40985;53.180;5.800;2023-03-21T08:44:46;8.90;99.90
55091;DHT22;40985;53.180;5.800;2023-03-21T08:47:12;9.00;99.90
55091;DHT22;40985;53.180;5.800;2023-03-21T08:49:38;8.70;99.90
55091;DHT22;40985;53.180;5.800;2023-03-21T08:52:04;8.70;99.90
55091;DHT22;40985;53.180;5.800;2023-03-21T08:54:30;8.70;99.90
55091;DHT22;40985;53.180;5.800;2023-03-21T08:56:56;8.70;99.90
55091;DHT22;40985;53.180;5.800;2023-03-21T08:59:22;8.70;99.90
55091;DHT22;40985;53.180;5.800;2023-03-21T09:01:51;9.00;99.90
55091;DHT22;40985;53.180;5.800;2023-03-21T09:04:16;8.80;99.90
55091;DHT22;40985;53.180;5.800;2023-03-21T09:06:43;9.10;99.90
55091;DHT22;40985;53.180;5.800;2023-03-21T09:09:10;8.80;99.90
55091;DHT22;40985;53.180;5.800;2023-03-21T09:11:37;8.80;99.90
55091;DHT22;40985;53.180;5.800;2023-03-21T09:14:02;9.00;99.90
55091;DHT22;40985;53.180;5.800;2023-03-21T09:16:28;8.80;99.90
55091;DHT22;40985;53.180;5.800;2023-03-21T09:18:54;9.00;99.90
55091;DHT22;40985;53.180;5.800;2023-03-21T09:21:21;8.90;99.90
55091;DHT22;40985;53.180;5.800;2023-03-21T09:23:49;8.90;99.90
55091;DHT22;40985;53.180;5.800;2023-03-21T09:26:18;8.90;99.90
55091;DHT22;40985;53.180;5.800;2023-03-21T09:28:44;8.90;99.90
55091;DHT22;40985;53.180;5.800;2023-03-21T09:31:14;9.00;99.90
55091;DHT22;40985;53.180;5.800;2023-03-21T09:33:45;8.80;99.90
55091;DHT22;40985;53.180;5.800;2023-03-21T09:36:12;8.80;99.90
55091;DHT22;40985;53.180;5.800;2023-03-21T09:38:41;8.80;99.90
55091;DHT22;40985;53.180;5.800;2023-03-21T09:43:38;8.90;99.90
55091;DHT22;40985;53.180;5.800;2023-03-21T09:48:51;8.90;99.90
55091;DHT22;40985;53.180;5.800;2023-03-21T09:51:23;9.00;99.90
55091;DHT22;40985;53.180;5.800;2023-03-21T09:53:52;8.90;99.90
55091;DHT22;40985;53.180;5.800;2023-03-21T09:56:20;9.10;99.90
55091;DHT22;40985;53.180;5.800;2023-03-21T09:58:53;9.20;99.90
55091;DHT22;40985;53.180;5.800;2023-03-21T10:01:28;9.30;99.90
55091;DHT22;40985;53.180;5.800;2023-03-21T10:04:04;9.30;99.90
55091;DHT22;40985;53.180;5.800;2023-03-21T10:06:32;9.30;99.90
55091;DHT22;40985;53.180;5.800;2023-03-21T10:09:15;9.40;99.90
55091;DHT22;40985;53.180;5.800;2023-03-21T10:11:57;9.50;99.90
55091;DHT22;40985;53.180;5.800;2023-03-21T10:14:30;9.40;99.90
55091;DHT22;40985;53.180;5.800;2023-03-21T10:17:36;9.60;99.90
55091;DHT22;40985;53.180;5.800;2023-03-21T10:20:16;9.60;99.90
55091;DHT22;40985;53.180;5.800;2023-03-21T10:22:43;9.80;99.90
55091;DHT22;40985;53.180;5.800;2023-03-21T10:25:18;9.90;99.90
55091;DHT22;40985;53.180;5.800;2023-03-21T10:27:45;10.10;99.90
55091;DHT22;40985;53.180;5.800;2023-03-21T10:30:39;10.40;99.90
55091;DHT22;40985;53.180;5.800;2023-03-21T10:33:08;10.50;99.90
55091;DHT22;40985;53.180;5.800;2023-03-21T10:35:36;10.50;99.90
55091;DHT22;40985;53.180;5.800;2023-03-21T10:38:05;10.40;99.90
55091;DHT22;40985;53.180;5.800;2023-03-21T10:40:31;10.40;99.90
55091;DHT22;40985;53.180;5.800;2023-03-21T10:45:54;10.40;99.90
55091;DHT22;40985;53.180;5.800;2023-03-21T10:48:21;10.40;99.90
55091;DHT22;40985;53.180;5.800;2023-03-21T10:50:49;10.50;99.90
55091;DHT22;40985;53.180;5.800;2023-03-21T10:53:21;10.50;99.90
55091;DHT22;40985;53.180;5.800;2023-03-21T10:55:51;10.50;99.90
55091;DHT22;40985;53.180;5.800;2023-03-21T10:58:23;10.50;99.90
55091;DHT22;40985;53.180;5.800;2023-03-21T11:00:57;10.50;99.90
55091;DHT22;40985;53.180;5.800;2023-03-21T11:03:35;10.50;99.90
55091;DHT22;40985;53.180;5.800;2023-03-21T11:09:08;10.70;99.90
55091;DHT22;40985;53.180;5.800;2023-03-21T11:11:40;10.80;99.90
55091;DHT22;40985;53.180;5.800;2023-03-21T11:16:51;10.90;99.90
55091;DHT22;40985;53.180;5.800;2023-03-21T11:19:25;10.90;99.90
55091;DHT22;40985;53.180;5.800;2023-03-21T11:21:52;10.90;99.90
55091;DHT22;40985;53.180;5.800;2023-03-21T11:24:18;10.80;99.90
55091;DHT22;40985;53.180;5.800;2023-03-21T11:26:47;10.90;99.90
55091;DHT22;40985;53.180;5.800;2023-03-21T11:29:28;10.90;99.90
55091;DHT22;40985;53.180;5.800;2023-03-21T11:35:00;10.80;99.90
55091;DHT22;40985;53.180;5.800;2023-03-21T11:45:21;10.60;99.90
55091;DHT22;40985;53.180;5.800;2023-03-21T11:47:53;10.60;99.90
55091;DHT22;40985;53.180;5.800;2023-03-21T12:04:17;10.40;99.90
55091;DHT22;40985;53.180;5.800;2023-03-21T12:06:52;10.30;99.90
55091;DHT22;40985;53.180;5.800;2023-03-21T12:11:59;10.30;99.90
55091;DHT22;40985;53.180;5.800;2023-03-21T12:22:51;10.70;99.90
55091;DHT22;40985;53.180;5.800;2023-03-21T12:25:38;10.80;99.90
55091;DHT22;40985;53.180;5.800;2023-03-21T12:31:00;10.90;99.90
55091;DHT22;40985;53.180;5.800;2023-03-21T12:39:01;11.00;99.90
55091;DHT22;40985;53.180;5.800;2023-03-21T12:41:35;11.00;99.90
55091;DHT22;40985;53.180;5.800;2023-03-21T12:44:14;11.10;99.90
55091;DHT22;40985;53.180;5.800;2023-03-21T12:46:54;11.10;99.90
55091;DHT22;40985;53.180;5.800;2023-03-21T12:49:45;11.20;99.90
55091;DHT22;40985;53.180;5.800;2023-03-21T12:52:23;11.00;99.90
55091;DHT22;40985;53.180;5.800;2023-03-21T12:57:45;10.90;99.90
55091;DHT22;40985;53.180;5.800;2023-03-21T13:00:22;11.00;99.90
55091;DHT22;40985;53.180;5.800;2023-03-21T13:03:15;11.20;99.90
55091;DHT22;40985;53.180;5.800;2023-03-21T13:05:48;11.20;99.90
55091;DHT22;40985;53.180;5.800;2023-03-21T13:10:47;11.50;99.90
55091;DHT22;40985;53.180;5.800;2023-03-21T13:19:25;11.40;99.90
55091;DHT22;40985;53.180;5.800;2023-03-21T13:24:48;11.40;99.90
55091;DHT22;40985;53.180;5.800;2023-03-21T13:27:27;11.50;99.90
55091;DHT22;40985;53.180;5.800;2023-03-21T13:34:55;11.60;99.90
55091;DHT22;40985;53.180;5.800;2023-03-21T13:37:25;11.60;99.90
55091;DHT22;40985;53.180;5.800;2023-03-21T13:40:00;11.50;99.90
55091;DHT22;40985;53.180;5.800;2023-03-21T13:42:31;11.30;99.90
55091;DHT22;40985;53.180;5.800;2023-03-21T13:45:03;11.40;99.90
55091;DHT22;40985;53.180;5.800;2023-03-21T13:51:07;11.40;99.90
55091;DHT22;40985;53.180;5.800;2023-03-21T13:55:44;11.60;99.90
55091;DHT22;40985;53.180;5.800;2023-03-21T13:58:32;11.90;99.90
55091;DHT22;40985;53.180;5.800;2023-03-21T14:04:13;11.90;99.90
55091;DHT22;40985;53.180;5.800;2023-03-21T14:07:01;11.90;99.90
55091;DHT22;40985;53.180;5.800;2023-03-21T14:12:01;12.20;99.90
55091;DHT22;40985;53.180;5.800;2023-03-21T14:14:35;12.00;99.90
55091;DHT22;40985;53.180;5.800;2023-03-21T14:17:14;11.90;99.90
55091;DHT22;40985;53.180;5.800;2023-03-21T14:19:40;11.90;99.90
55091;DHT22;40985;53.180;5.800;2023-03-21T14:22:11;11.80;99.90
55091;DHT22;40985;53.180;5.800;2023-03-21T14:24:37;11.70;99.90
55091;DHT22;40985;53.180;5.800;2023-03-21T14:27:04;11.60;99.90
55091;DHT22;40985;53.180;5.800;2023-03-21T14:29:33;11.60;99.90
55091;DHT22;40985;53.180;5.800;2023-03-21T14:32:00;11.30;99.90
55091;DHT22;40985;53.180;5.800;2023-03-21T14:34:28;11.20;99.90
55091;DHT22;40985;53.180;5.800;2023-03-21T14:36:55;11.10;99.90
55091;DHT22;40985;53.180;5.800;2023-03-21T14:39:28;11.00;99.90
55091;DHT22;40985;53.180;5.800;2023-03-21T14:42:07;10.90;99.90
55091;DHT22;40985;53.180;5.800;2023-03-21T14:44:47;10.90;99.90
55091;DHT22;40985;53.180;5.800;2023-03-21T14:47:26;10.90;99.90
55091;DHT22;40985;53.180;5.800;2023-03-21T14:49:54;10.90;99.90
55091;DHT22;40985;53.180;5.800;2023-03-21T14:52:30;10.70;99.90
55091;DHT22;40985;53.180;5.800;2023-03-21T14:54:57;10.60;99.90
55091;DHT22;40985;53.180;5.800;2023-03-21T14:57:29;10.50;99.90
55091;DHT22;40985;53.180;5.800;2023-03-21T15:00:04;10.40;99.90
55091;DHT22;40985;53.180;5.800;2023-03-21T15:02:41;10.30;99.90
55091;DHT22;40985;53.180;5.800;2023-03-21T15:07:39;10.30;99.90
55091;DHT22;40985;53.180;5.800;2023-03-21T15:10:14;10.30;99.90
55091;DHT22;40985;53.180;5.800;2023-03-21T15:12:50;10.30;99.90
55091;DHT22;40985;53.180;5.800;2023-03-21T15:15:17;10.30;99.90
55091;DHT22;40985;53.180;5.800;2023-03-21T15:17:43;10.30;99.90
55091;DHT22;40985;53.180;5.800;2023-03-21T15:20:14;10.30;99.90
55091;DHT22;40985;53.180;5.800;2023-03-21T15:22:44;10.30;99.90
55091;DHT22;40985;53.180;5.800;2023-03-21T15:25:19;10.30;99.90
55091;DHT22;40985;53.180;5.800;2023-03-21T15:27:48;10.30;99.90
55091;DHT22;40985;53.180;5.800;2023-03-21T15:30:27;10.30;99.90
55091;DHT22;40985;53.180;5.800;2023-03-21T15:32:58;10.20;99.90
55091;DHT22;40985;53.180;5.800;2023-03-21T15:35:37;10.10;99.90
55091;DHT22;40985;53.180;5.800;2023-03-21T15:38:03;10.00;99.90
55091;DHT22;40985;53.180;5.800;2023-03-21T15:40:31;9.90;99.90
55091;DHT22;40985;53.180;5.800;2023-03-21T15:43:17;9.80;99.90
55091;DHT22;40985;53.180;5.800;2023-03-21T15:45:54;9.80;99.90
55091;DHT22;40985;53.180;5.800;2023-03-21T15:48:24;9.80;99.90
55091;DHT22;40985;53.180;5.800;2023-03-21T15:51:05;9.70;99.90
55091;DHT22;40985;53.180;5.800;2023-03-21T15:53:36;9.60;99.90
55091;DHT22;40985;53.180;5.800;2023-03-21T15:56:08;9.60;99.90
55091;DHT22;40985;53.180;5.800;2023-03-21T15:59:01;9.50;99.90
55091;DHT22;40985;53.180;5.800;2023-03-21T16:01:30;9.40;99.90
55091;DHT22;40985;53.180;5.800;2023-03-21T16:04:07;9.50;99.90
55091;DHT22;40985;53.180;5.800;2023-03-21T16:06:41;9.40;99.90
55091;DHT22;40985;53.180;5.800;2023-03-21T16:09:17;9.50;99.90
55091;DHT22;40985;53.180;5.800;2023-03-21T16:11:58;9.30;99.90
55091;DHT22;40985;53.180;5.800;2023-03-21T16:14:27;9.30;99.90
55091;DHT22;40985;53.180;5.800;2023-03-21T16:17:25;9.40;99.90
55091;DHT22;40985;53.180;5.800;2023-03-21T16:19:55;9.50;99.90
55091;DHT22;40985;53.180;5.800;2023-03-21T16:22:27;9.40;99.90
55091;DHT22;40985;53.180;5.800;2023-03-21T16:24:54;9.50;99.90
55091;DHT22;40985;53.180;5.800;2023-03-21T16:27:21;9.40;99.90
55091;DHT22;40985;53.180;5.800;2023-03-21T16:29:47;9.60;99.90
55091;DHT22;40985;53.180;5.800;2023-03-21T16:32:15;9.60;99.90
55091;DHT22;40985;53.180;5.800;2023-03-21T16:34:41;9.50;99.90
55091;DHT22;40985;53.180;5.800;2023-03-21T16:37:09;9.50;99.90
55091;DHT22;40985;53.180;5.800;2023-03-21T16:39:36;9.40;99.90
55091;DHT22;40985;53.180;5.800;2023-03-21T16:42:02;9.40;99.90
55091;DHT22;40985;53.180;5.800;2023-03-21T16:44:28;9.40;99.90
55091;DHT22;40985;53.180;5.800;2023-03-21T16:46:55;9.50;99.90
55091;DHT22;40985;53.180;5.800;2023-03-21T16:49:30;9.50;99.90
55091;DHT22;40985;53.180;5.800;2023-03-21T16:52:08;9.60;99.90
55091;DHT22;40985;53.180;5.800;2023-03-21T16:54:37;9.60;99.90
55091;DHT22;40985;53.180;5.800;2023-03-21T16:57:04;9.50;99.90
55091;DHT22;40985;53.180;5.800;2023-03-21T16:59:39;9.50;99.90
55091;DHT22;40985;53.180;5.800;2023-03-21T17:02:13;9.60;99.90
55091;DHT22;40985;53.180;5.800;2023-03-21T17:04:40;9.50;99.90
55091;DHT22;40985;53.180;5.800;2023-03-21T17:07:15;9.50;99.90
55091;DHT22;40985;53.180;5.800;2023-03-21T17:09:43;9.40;99.90
55091;DHT22;40985;53.180;5.800;2023-03-21T17:12:16;9.40;99.90
55091;DHT22;40985;53.180;5.800;2023-03-21T17:14:51;9.40;99.90
55091;DHT22;40985;53.180;5.800;2023-03-21T17:17:21;9.40;99.90
55091;DHT22;40985;53.180;5.800;2023-03-21T17:19:48;9.50;99.90
55091;DHT22;40985;53.180;5.800;2023-03-21T17:22:21;9.40;99.90
55091;DHT22;40985;53.180;5.800;2023-03-21T17:24:49;9.50;99.90
55091;DHT22;40985;53.180;5.800;2023-03-21T17:27:22;9.50;99.90
55091;DHT22;40985;53.180;5.800;2023-03-21T17:29:48;9.40;99.90
55091;DHT22;40985;53.180;5.800;2023-03-21T17:32:18;9.50;99.90
55091;DHT22;40985;53.180;5.800;2023-03-21T17:34:43;9.50;99.90
55091;DHT22;40985;53.180;5.800;2023-03-21T17:37:10;9.40;99.90
55091;DHT22;40985;53.180;5.800;2023-03-21T17:39:48;9.50;99.90
55091;DHT22;40985;53.180;5.800;2023-03-21T17:42:14;9.50;99.90
55091;DHT22;40985;53.180;5.800;2023-03-21T17:44:42;9.50;99.90
55091;DHT22;40985;53.180;5.800;2023-03-21T17:47:09;9.40;99.90
55091;DHT22;40985;53.180;5.800;2023-03-21T17:49:40;9.40;99.90
55091;DHT22;40985;53.180;5.800;2023-03-21T17:52:10;9.50;99.90
55091;DHT22;40985;53.180;5.800;2023-03-21T17:54:36;9.40;99.90
55091;DHT22;40985;53.180;5.800;2023-03-21T17:57:02;9.30;99.90
55091;DHT22;40985;53.180;5.800;2023-03-21T17:59:28;9.30;99.90
55091;DHT22;40985;53.180;5.800;2023-03-21T18:01:55;9.20;99.90
55091;DHT22;40985;53.180;5.800;2023-03-21T18:04:45;9.10;99.90
55091;DHT22;40985;53.180;5.800;2023-03-21T18:07:14;9.10;99.90
55091;DHT22;40985;53.180;5.800;2023-03-21T18:09:43;9.00;99.90